Flight Track Log - Related Links

Times and Time Zones

All times are in EDT time to prevent confusion due to time zone crossing. See the AWE1578 flight status page for this flight to view local times or setup timezone preferences in your user account.


Time Position Orientation Groundspeed Altitude Reporting Facility
EDT Latitude Longitude Course Direction KTS MPH feet Rate Location/Type
Wed 03:00:00 PM 35.1972 -80.9381 72° East 163 188 1,700  Level Atlanta Center
Wed 03:00:17 PM 35.1872 -80.9328 157° South 158 182 2,600 2,919 Climbing FAA TRACON SMA TRACON (SMA)
Wed 03:00:37 PM 35.1672 -80.9314 177° South 197 227 3,500 1,950 Climbing FAA TRACON SMA TRACON (SMA)
Wed 03:00:57 PM 35.1497 -80.9278 170° South 218 251 3,900 600 Climbing FAA TRACON SMA TRACON (SMA)
Wed 03:01:17 PM 35.1339 -80.9131 143° Southeast 242 278 3,900  Level FAA TRACON SMA TRACON (SMA)
Wed 03:01:37 PM 35.1214 -80.8842 118° Southeast 268 308 3,900  Level FAA TRACON SMA TRACON (SMA)
Wed 03:01:57 PM 35.1200 -80.8553 93° East 280 322 3,900 300 Level FAA TRACON SMA TRACON (SMA)
Wed 03:02:00 PM 35.1171 -80.6219 29° Northeast  Level FlightAware Approximate
Wed 03:02:17 PM 35.1192 -80.8264 92° East 279 321 4,100  Level FAA TRACON SMA TRACON (SMA)
Wed 03:02:37 PM 35.1181 -80.7897 92° East 281 323 5,600 4,050 Climbing FAA TRACON SMA TRACON (SMA)
Wed 03:02:57 PM 35.1175 -80.7600 91° East 283 326 6,800 2,634 Climbing FAA TRACON SMA TRACON (SMA)
Wed 03:03:00 PM 35.2152 -80.5558 30° Northeast  Level FlightAware Approximate
Wed 03:03:18 PM 35.1169 -80.7297 91° East 289 333 7,400  Level FAA TRACON SMA TRACON (SMA)
Wed 03:03:38 PM 35.1197 -80.6869 85° East 325 374 8,400 3,692 Climbing FAA TRACON SMA TRACON (SMA)
Wed 03:03:57 PM 35.1308 -80.6550 67° East 328 377 9,800 4,000 Climbing FAA TRACON SMA TRACON (SMA)
Wed 03:04:00 PM 35.3120 -80.4867 30° Northeast  Level FlightAware Approximate
Wed 03:04:17 PM 35.1469 -80.6267 55° Northeast 328 377 11,000  Level FAA TRACON SMA TRACON (SMA)
Wed 03:04:37 PM 35.1694 -80.5892 54° Northeast 369 425 12,100 2,700 Climbing FAA TRACON SMA TRACON (SMA)
Wed 03:04:57 PM 35.1892 -80.5572 53° Northeast 386 444 12,800 2,400 Climbing FAA TRACON SMA TRACON (SMA)
Wed 03:05:00 PM 35.3569 -80.3776 72° East  Level FlightAware Approximate
Wed 03:05:17 PM 35.2086 -80.5233 55° Northeast 402 463 13,700  Level FAA TRACON SMA TRACON (SMA)
Wed 03:05:37 PM 35.2358 -80.4800 52° Northeast 418 481 15,100 2,100 Climbing FAA TRACON SMA TRACON (SMA)
Wed 03:05:57 PM 35.2358 -80.4800 360° North 418 481 15,100 3,238 Level FAA TRACON SMA TRACON (SMA)
Wed 03:07:43 PM 35.3858 -80.2289 54° Northeast 439 505 21,900 1,587 Climbing Washington Center
Wed 03:13:27 PM 35.6410 -79.3510 54° Northeast 486 559 27,000 828 Climbing FlightAware ADS-B
Wed 03:14:07 PM 35.6810 -79.2510 64° Northeast 488 562 27,200 1,200 Climbing FlightAware ADS-B
Wed 03:14:47 PM 35.7420 -79.1740 46° Northeast 489 563 28,600 2,475 Climbing FlightAware ADS-B
Wed 03:15:27 PM 35.8190 -79.1150 32° Northeast 479 551 30,500 1,800 Climbing FlightAware ADS-B
Wed 03:16:07 PM 35.8960 -79.0570 31° Northeast 470 541 31,000 429 Climbing FlightAware ADS-B
Wed 03:16:37 PM 35.9500 -79.0170 31° Northeast 467 537 31,000  Level FlightAware ADS-B
Wed 03:17:22 PM 36.0330 -78.9540 32° Northeast 468 539 31,000  Level FlightAware ADS-B
Wed 03:18:02 PM 36.1080 -78.8980 31° Northeast 471 542 31,000  Level FlightAware ADS-B
Wed 03:18:42 PM 36.1850 -78.8410 31° Northeast 473 544 31,000  Level FlightAware ADS-B
Wed 03:19:27 PM 36.2680 -78.7790 31° Northeast 475 547 31,000  Level FlightAware ADS-B
Wed 03:20:07 PM 36.3430 -78.7230 31° Northeast 476 548 31,000  Level FlightAware ADS-B
Wed 03:20:52 PM 36.4290 -78.6570 32° Northeast 478 550 31,000  Level FlightAware ADS-B
Wed 03:21:32 PM 36.5030 -78.6020 31° Northeast 472 543 31,000  Level FlightAware ADS-B
Wed 03:22:12 PM 36.5810 -78.5420 32° Northeast 480 552 31,000  Level FlightAware ADS-B
Wed 03:22:57 PM 36.6560 -78.4870 30° Northeast 480 552 31,000  Level FlightAware ADS-B
Wed 03:23:37 PM 36.7210 -78.4380 31° Northeast 480 552 31,000  Level FlightAware ADS-B
Wed 03:24:17 PM 36.7850 -78.3900 31° Northeast 480 552 31,000  Level FlightAware ADS-B
Wed 03:24:57 PM 36.8500 -78.3410 31° Northeast 480 552 31,000  Level FlightAware ADS-B
Wed 03:25:37 PM 36.9150 -78.2920 31° Northeast 480 552 31,000  Level FlightAware ADS-B
Wed 03:26:27 PM 36.9960 -78.2320 31° Northeast 480 552 31,000  Level FlightAware ADS-B
Wed 03:27:07 PM 37.0600 -78.1830 31° Northeast 480 552 31,000  Level FlightAware ADS-B
Wed 03:27:47 PM 37.2120 -78.0590 33° Northeast 485 558 31,000  Level FlightAware ADS-B
Wed 03:28:37 PM 37.3050 -77.9880 31° Northeast 484 557 31,000  Level FlightAware ADS-B
Wed 03:29:27 PM 37.4090 -77.9060 32° Northeast 482 555 31,000  Level FlightAware ADS-B
Wed 03:30:22 PM 37.5130 -77.8230 32° Northeast 482 555 31,000  Level FlightAware ADS-B
Wed 03:31:07 PM 37.5940 -77.7510 35° Northeast 481 554 31,000  Level FlightAware ADS-B
Wed 03:31:47 PM 37.6640 -77.6880 35° Northeast 479 551 31,000  Level FlightAware ADS-B
Wed 03:32:32 PM 37.7440 -77.6150 36° Northeast 477 549 31,000  Level FlightAware ADS-B
Wed 03:33:12 PM 37.8180 -77.5480 36° Northeast 475 547 31,000  Level FlightAware ADS-B
Wed 03:33:52 PM 37.8850 -77.4860 36° Northeast 475 547 31,000  Level FlightAware ADS-B
Wed 03:34:37 PM 37.9660 -77.4120 36° Northeast 475 547 31,000  Level FlightAware ADS-B
Wed 03:35:11 PM 38.0316 -77.3510 36° Northeast 474 545 31,000  Level FlightAware ADS-B
Wed 03:35:49 PM 38.0999 -77.2876 36° Northeast 474 545 31,000  Level FlightAware ADS-B
Wed 03:36:22 PM 38.1581 -77.2337 36° Northeast 474 545 31,000  Level FlightAware ADS-B
Wed 03:37:05 PM 38.2340 -77.1644 36° Northeast 474 545 31,000  Level FlightAware ADS-B
Wed 03:37:36 PM 38.2903 -77.1136 35° Northeast 476 548 31,000  Level FlightAware ADS-B
Wed 03:38:07 PM 38.3260 -77.0810 36° Northeast 475 547 31,000 -507 Level FlightAware ADS-B
Wed 03:38:47 PM 38.4090 -77.0060 35° Northeast 477 549 30,400 -1,575 Descending FlightAware ADS-B
Wed 03:39:27 PM 38.4780 -76.9420 36° Northeast 468 539 28,900 -2,250 Descending FlightAware ADS-B
Wed 03:40:07 PM 38.5440 -76.8810 36° Northeast 458 527 27,400 -2,188 Descending FlightAware ADS-B
Wed 03:40:52 PM 38.6140 -76.8160 36° Northeast 449 517 25,800 -2,259 Descending FlightAware ADS-B
Wed 03:41:32 PM 38.6830 -76.7370 42° Northeast 442 509 24,200 -2,421 Descending FlightAware ADS-B
Wed 03:41:49 PM 38.7034 -76.6834 64° Northeast 442 509 23,500 -2,333 Descending FlightAware ADS-B
Wed 03:42:26 PM 38.7241 -76.5893 74° East 433 498 22,100 -2,029 Descending FlightAware ADS-B
Wed 03:42:57 PM 38.7395 -76.5142 75° East 423 487 21,200 -1,781 Descending FlightAware ADS-B
Wed 03:43:30 PM 38.7556 -76.4352 75° East 413 475 20,200 -1,818 Descending FlightAware ADS-B
Wed 03:44:03 PM 38.7708 -76.3602 75° East 400 460 19,200 -1,714 Descending FlightAware ADS-B
Wed 03:44:33 PM 38.7848 -76.2915 75° East 402 463 18,400 -1,700 Descending FlightAware ADS-B
Wed 03:45:03 PM 38.7996 -76.2214 75° East 410 472 17,500 -1,800 Descending FlightAware ADS-B
Wed 03:45:33 PM 38.8145 -76.1506 75° East 408 470 16,600 -1,791 Descending FlightAware ADS-B
Wed 03:46:10 PM 38.8331 -76.0623 75° East 415 478 15,500 -1,297 Descending FlightAware ADS-B
Wed 03:46:47 PM 38.8506 -75.9763 75° East 410 472 15,000 -395 Descending FlightAware ADS-B
Wed 03:47:26 PM 38.8691 -75.8824 76° East 414 476 15,000  Level FlightAware ADS-B
Wed 03:47:37 PM 38.8768 -75.8584 68° East 414 476 15,000  Level FlightAware ADS-B
Wed 03:47:48 PM 38.8875 -75.8362 58° Northeast 412 474 15,000  Level FlightAware ADS-B
Wed 03:48:02 PM 38.9048 -75.8107 49° Northeast 410 472 15,000 -120 Level FlightAware ADS-B
Wed 03:48:38 PM 38.9570 -75.7556 39° Northeast 404 465 14,900 -737 Descending FlightAware ADS-B
Wed 03:48:59 PM 38.9879 -75.7250 38° Northeast 397 457 14,300 -2,571 Descending FlightAware ADS-B
Wed 03:49:27 PM 39.0305 -75.6901 32° Northeast 381 438 12,800 -3,333 Descending FlightAware ADS-B
Wed 03:49:35 PM 39.0439 -75.6826 23° Northeast 372 428 12,300 -3,600 Descending FlightAware ADS-B
Wed 03:49:47 PM 39.0631 -75.6750 17° North 366 421 11,600 -2,591 Descending FlightAware ADS-B
Wed 03:50:19 PM 39.1163 -75.6670 North 362 417 10,400 -1,548 Descending FlightAware ADS-B
Wed 03:50:49 PM 39.1656 -75.6608 North 340 391 10,000 -358 Descending FlightAware ADS-B
Wed 03:51:26 PM 39.2201 -75.6553 North 309 356 10,000  Level FlightAware ADS-B
Wed 03:51:52 PM 39.2567 -75.6522 North 309 356 10,000  Level FlightAware ADS-B
Wed 03:52:07 PM 39.2780 -75.6448 15° North 319 367 10,000  Level FlightAware ADS-B
Wed 03:52:13 PM 39.2859 -75.6402 24° Northeast 322 371 10,000  Level FlightAware ADS-B
Wed 03:52:30 PM 39.3081 -75.6235 30° Northeast 326 375 10,000 -414 Level FlightAware ADS-B
Wed 03:52:42 PM 39.3230 -75.6112 33° Northeast 324 373 9,800 -1,286 Descending FlightAware ADS-B
Wed 03:52:58 PM 39.3424 -75.5945 34° Northeast 322 371 9,400 -1,548 Descending FlightAware ADS-B
Wed 03:53:13 PM 39.3611 -75.5776 35° Northeast 322 371 9,000 -1,636 Descending FlightAware ADS-B
Wed 03:53:20 PM 39.3690 -75.5681 43° Northeast 323 372 8,800 -1,286 Descending FlightAware ADS-B
Wed 03:53:27 PM 39.3753 -75.5583 50° Northeast 324 373 8,700 -1,125 Descending FlightAware ADS-B
Wed 03:53:36 PM 39.3827 -75.5434 57° Northeast 323 372 8,500 -1,333 Descending FlightAware ADS-B
Wed 03:53:45 PM 39.3885 -75.5278 64° Northeast 321 369 8,300 -1,250 Descending FlightAware ADS-B
Wed 03:54:00 PM 39.3970 -75.5013 67° East 319 367 8,000 -1,200 Descending FlightAware ADS-B
Wed 03:54:15 PM 39.4048 -75.4745 69° East 316 364 7,700 -1,500 Descending FlightAware ADS-B
Wed 03:54:32 PM 39.4136 -75.4442 69° East 314 361 7,200 -1,059 Descending FlightAware ADS-B
Wed 03:54:49 PM 39.4219 -75.4158 69° East 314 361 7,100 -375 Descending FlightAware ADS-B
Wed 03:55:04 PM 39.4297 -75.3887 70° East 317 365 7,000 -194 Descending FlightAware ADS-B
Wed 03:55:20 PM 39.4382 -75.3606 69° East 318 366 7,000  Level FlightAware ADS-B
Wed 03:55:32 PM 39.4447 -75.3391 69° East 317 365 7,000  Level FlightAware ADS-B
Wed 03:55:39 PM 39.4486 -75.3276 66° East 318 366 7,000  Level FlightAware ADS-B
Wed 03:55:45 PM 39.4529 -75.3178 60° Northeast 316 364 7,000  Level FlightAware ADS-B
Wed 03:55:52 PM 39.4589 -75.3066 55° Northeast 316 364 7,000  Level FlightAware ADS-B
Wed 03:55:58 PM 39.4650 -75.2969 51° Northeast 314 361 7,000  Level FlightAware ADS-B
Wed 03:56:07 PM 39.4737 -75.2844 48° Northeast 313 360 7,000 -353 Level FlightAware ADS-B
Wed 03:56:15 PM 39.4814 -75.2744 45° Northeast 312 359 6,900 -947 Descending FlightAware ADS-B
Wed 03:56:26 PM 39.4928 -75.2615 41° Northeast 312 359 6,700 -1,000 Descending FlightAware ADS-B
Wed 03:56:33 PM 39.5017 -75.2524 38° Northeast 312 359 6,600 -1,091 Descending FlightAware ADS-B
Wed 03:56:48 PM 39.5194 -75.2356 36° Northeast 315 362 6,300 -1,091 Descending FlightAware ADS-B
Wed 03:57:06 PM 39.5394 -75.2159 37° Northeast 318 366 6,000 -529 Descending FlightAware ADS-B
Wed 03:57:22 PM 39.5580 -75.1973 38° Northeast 315 362 6,000  Level FlightAware ADS-B
Wed 03:57:37 PM 39.5758 -75.1796 37° Northeast 315 362 6,000  Level FlightAware ADS-B
Wed 03:58:12 PM 39.6120 -75.1440 37° Northeast 308 354 6,000  Level FlightAware ADS-B
Wed 03:58:15 PM 39.6198 -75.1371 34° Northeast 314 361 6,000  Level FlightAware ADS-B
Wed 03:58:32 PM 39.6402 -75.1175 36° Northeast 313 360 6,000  Level FlightAware ADS-B
Wed 03:58:48 PM 39.6579 -75.1005 36° Northeast 314 361 6,000  Level FlightAware ADS-B
Wed 03:59:22 PM 39.6979 -75.0617 37° Northeast 315 362 6,000 -711 Level FlightAware ADS-B
Wed 04:00:04 PM 39.7549 -75.0411 16° North 304 350 5,100 -1,627 Descending FlightAware ADS-B
Wed 04:00:21 PM 39.7779 -75.0346 12° North 295 339 4,400 -2,250 Descending FlightAware ADS-B
Wed 04:00:28 PM 39.7865 -75.0323 12° North 291 335 4,200 -1,800 Descending FlightAware ADS-B
Wed 04:00:31 PM 39.7913 -75.0317 North 284 327 4,100 -1,714 Descending FlightAware ADS-B
Wed 04:00:35 PM 39.7957 -75.0317 360° North 280 322 4,000 -1,200 Descending FlightAware ADS-B
Wed 04:00:51 PM 39.8160 -75.0344 354° North 259 298 3,700 -800 Descending FlightAware ADS-B
Wed 04:01:05 PM 39.8318 -75.0368 353° North 244 281 3,600 -581 Descending FlightAware ADS-B
Wed 04:01:22 PM 39.8505 -75.0396 353° North 237 273 3,400 -522 Descending FlightAware ADS-B
Wed 04:01:51 PM 39.8793 -75.0495 345° North 234 269 3,200 -514 Descending FlightAware ADS-B
Wed 04:01:57 PM 39.8833 -75.0542 318° Northwest 202 232 3,100 -923 Descending FlightAware ADS-B
Wed 04:02:04 PM 39.8876 -75.0601 314° West 198 228 3,000 -800 Descending FlightAware ADS-B
Wed 04:02:12 PM 39.8915 -75.0679 303° West 187 215 2,900 -500 Descending FlightAware ADS-B
Wed 04:02:16 PM 39.8932 -75.0729 294° West 183 211 2,900 -545 Level FlightAware ADS-B
Wed 04:02:23 PM 39.8944 -75.0794 284° West 176 203 2,800 -1,000 Descending FlightAware ADS-B
Wed 04:02:28 PM 39.8943 -75.0847 269° West 170 196 2,700 -1,000 Descending FlightAware ADS-B
Wed 04:02:35 PM 39.8926 -75.0916 252° West 165 190 2,600 -857 Descending FlightAware ADS-B
Wed 04:02:49 PM 39.8893 -75.1046 252° West 166 191 2,400 -1,071 Descending FlightAware ADS-B
Wed 04:03:03 PM 39.8867 -75.1185 256° West 168 193 2,100 -1,400 Descending FlightAware ADS-B
Wed 04:03:19 PM 39.8836 -75.1341 255° West 164 189 1,700 -1,364 Descending FlightAware ADS-B
Wed 04:03:25 PM 39.8824 -75.1398 255° West 161 185 1,600 -1,364 Descending FlightAware ADS-B
Wed 04:03:41 PM 39.8799 -75.1549 258° West 159 183 1,200 -1,091 Descending FlightAware ADS-B
Wed 04:03:58 PM 39.8767 -75.1699 254° West 146 168 1,000 -750 Descending FlightAware ADS-B
Wed 04:04:13 PM 39.8745 -75.1817 256° West 130 150 800 -732 Descending FlightAware ADS-B
Wed 04:04:39 PM 39.8706 -75.2012 255° West 134 154 500 -692 Descending FlightAware ADS-B

Login

Don't have an account? Register now (free) for customized features, flight alerts, and more!